Terminal Aerodrome Forecast
Issued by NWS Rapid City, SD

Home | Current Version | Previous Version | Graphics & Text | Print | Product List | Glossary On
Versions: 1 2 3 4 5 6 7 8 9 10 11 12 13 14 15 16 17
000
FTUS43 KUNR 220520
TAFRAP
TAF
KRAP 220520Z 2206/2306 15007KT P6SM OVC150
     FM221600 32018G30KT P6SM BKN150
     FM230100 32008KT P6SM SCT200=

USA.gov is the U.S. government's official web portal to all federal, state and local government web resources and services.